sensor_id;sensor_type;location;lat;lon;timestamp;pressure;altitude;pressure_sealevel;temperature;humidity
45050;BME280;61798;48.048;-1.928;2023-04-15T00:01:53;100417.53;;;7.07;100.00
45050;BME280;61798;48.048;-1.928;2023-04-15T00:04:03;100416.97;;;6.89;100.00
45050;BME280;61798;48.048;-1.928;2023-04-15T00:06:11;100402.53;;;6.74;100.00
45050;BME280;61798;48.048;-1.928;2023-04-15T00:08:18;100414.47;;;6.87;100.00
45050;BME280;61798;48.048;-1.928;2023-04-15T00:10:26;100405.16;;;6.83;100.00
45050;BME280;61798;48.048;-1.928;2023-04-15T00:12:33;100429.16;;;6.74;100.00
45050;BME280;61798;48.048;-1.928;2023-04-15T00:14:40;100434.59;;;6.90;100.00
45050;BME280;61798;48.048;-1.928;2023-04-15T00:16:47;100424.72;;;6.66;100.00
45050;BME280;61798;48.048;-1.928;2023-04-15T00:19:01;100428.91;;;6.61;100.00
45050;BME280;61798;48.048;-1.928;2023-04-15T00:21:08;100437.38;;;6.64;100.00
45050;BME280;61798;48.048;-1.928;2023-04-15T00:23:15;100449.19;;;6.62;100.00
45050;BME280;61798;48.048;-1.928;2023-04-15T00:25:22;100444.34;;;6.65;100.00
45050;BME280;61798;48.048;-1.928;2023-04-15T00:27:30;100437.19;;;6.66;100.00
45050;BME280;61798;48.048;-1.928;2023-04-15T00:29:37;100435.38;;;6.58;100.00
45050;BME280;61798;48.048;-1.928;2023-04-15T00:31:44;100440.44;;;6.44;100.00
45050;BME280;61798;48.048;-1.928;2023-04-15T00:33:51;100446.16;;;6.65;100.00
45050;BME280;61798;48.048;-1.928;2023-04-15T00:35:59;100446.91;;;6.33;100.00
45050;BME280;61798;48.048;-1.928;2023-04-15T00:38:06;100469.50;;;6.63;100.00
45050;BME280;61798;48.048;-1.928;2023-04-15T00:40:23;100439.13;;;6.40;100.00
45050;BME280;61798;48.048;-1.928;2023-04-15T00:42:30;100457.88;;;6.47;100.00
45050;BME280;61798;48.048;-1.928;2023-04-15T00:44:37;100457.41;;;6.27;100.00
45050;BME280;61798;48.048;-1.928;2023-04-15T00:46:44;100457.09;;;6.05;100.00
45050;BME280;61798;48.048;-1.928;2023-04-15T00:48:53;100428.47;;;6.07;100.00
45050;BME280;61798;48.048;-1.928;2023-04-15T00:51:00;100455.59;;;6.36;100.00
45050;BME280;61798;48.048;-1.928;2023-04-15T00:53:07;100447.44;;;6.29;100.00
45050;BME280;61798;48.048;-1.928;2023-04-15T00:55:14;100455.25;;;6.22;100.00
45050;BME280;61798;48.048;-1.928;2023-04-15T00:57:21;100450.59;;;6.32;100.00
45050;BME280;61798;48.048;-1.928;2023-04-15T00:59:30;100465.75;;;6.15;100.00
45050;BME280;61798;48.048;-1.928;2023-04-15T01:01:39;100459.09;;;6.19;100.00
45050;BME280;61798;48.048;-1.928;2023-04-15T01:03:51;100458.59;;;6.16;100.00
45050;BME280;61798;48.048;-1.928;2023-04-15T01:05:59;100455.13;;;6.15;100.00
45050;BME280;61798;48.048;-1.928;2023-04-15T01:08:06;100437.16;;;6.09;100.00
45050;BME280;61798;48.048;-1.928;2023-04-15T01:10:12;100459.25;;;6.18;100.00
45050;BME280;61798;48.048;-1.928;2023-04-15T01:12:18;100447.13;;;6.15;100.00
45050;BME280;61798;48.048;-1.928;2023-04-15T01:14:26;100462.59;;;6.11;100.00
45050;BME280;61798;48.048;-1.928;2023-04-15T01:16:37;100464.59;;;6.01;100.00
45050;BME280;61798;48.048;-1.928;2023-04-15T01:18:46;100433.00;;;5.81;100.00
45050;BME280;61798;48.048;-1.928;2023-04-15T01:20:54;100458.56;;;5.74;100.00
45050;BME280;61798;48.048;-1.928;2023-04-15T01:23:02;100434.81;;;5.80;100.00
45050;BME280;61798;48.048;-1.928;2023-04-15T01:25:17;100467.25;;;6.01;100.00
45050;BME280;61798;48.048;-1.928;2023-04-15T01:27:24;100464.22;;;5.87;100.00
45050;BME280;61798;48.048;-1.928;2023-04-15T01:29:33;100442.78;;;5.55;100.00
45050;BME280;61798;48.048;-1.928;2023-04-15T01:31:49;100459.41;;;5.66;100.00
45050;BME280;61798;48.048;-1.928;2023-04-15T01:33:58;100438.13;;;5.66;100.00
45050;BME280;61798;48.048;-1.928;2023-04-15T01:36:06;100462.72;;;5.59;100.00
45050;BME280;61798;48.048;-1.928;2023-04-15T01:38:14;100451.25;;;5.67;100.00
45050;BME280;61798;48.048;-1.928;2023-04-15T01:40:21;100469.53;;;5.62;100.00
45050;BME280;61798;48.048;-1.928;2023-04-15T01:42:28;100469.38;;;5.64;100.00
45050;BME280;61798;48.048;-1.928;2023-04-15T01:44:36;100473.34;;;5.59;100.00
45050;BME280;61798;48.048;-1.928;2023-04-15T01:46:44;100463.00;;;5.31;100.00
45050;BME280;61798;48.048;-1.928;2023-04-15T01:48:51;100468.19;;;5.58;100.00
45050;BME280;61798;48.048;-1.928;2023-04-15T01:50:58;100480.19;;;5.70;100.00
45050;BME280;61798;48.048;-1.928;2023-04-15T01:53:05;100474.00;;;5.61;100.00
45050;BME280;61798;48.048;-1.928;2023-04-15T01:55:11;100477.66;;;5.44;100.00
45050;BME280;61798;48.048;-1.928;2023-04-15T01:57:18;100478.09;;;5.31;100.00
45050;BME280;61798;48.048;-1.928;2023-04-15T01:59:25;100488.59;;;5.41;100.00
45050;BME280;61798;48.048;-1.928;2023-04-15T02:01:35;100489.41;;;5.33;100.00
45050;BME280;61798;48.048;-1.928;2023-04-15T02:03:44;100492.91;;;5.33;100.00
45050;BME280;61798;48.048;-1.928;2023-04-15T02:05:51;100495.00;;;5.13;100.00
45050;BME280;61798;48.048;-1.928;2023-04-15T02:07:58;100496.91;;;5.37;100.00
45050;BME280;61798;48.048;-1.928;2023-04-15T02:10:07;100501.56;;;5.44;100.00
45050;BME280;61798;48.048;-1.928;2023-04-15T02:12:15;100507.53;;;5.37;100.00
45050;BME280;61798;48.048;-1.928;2023-04-15T02:14:22;100496.06;;;5.28;100.00
45050;BME280;61798;48.048;-1.928;2023-04-15T02:16:29;100513.50;;;5.39;100.00
45050;BME280;61798;48.048;-1.928;2023-04-15T02:18:36;100478.69;;;5.07;100.00
45050;BME280;61798;48.048;-1.928;2023-04-15T02:20:43;100520.28;;;5.25;100.00
45050;BME280;61798;48.048;-1.928;2023-04-15T02:22:51;100530.13;;;5.33;100.00
45050;BME280;61798;48.048;-1.928;2023-04-15T02:24:58;100536.06;;;5.27;100.00
45050;BME280;61798;48.048;-1.928;2023-04-15T02:27:05;100503.69;;;4.88;100.00
45050;BME280;61798;48.048;-1.928;2023-04-15T02:29:12;100527.00;;;5.03;100.00
45050;BME280;61798;48.048;-1.928;2023-04-15T02:31:18;100539.69;;;5.17;100.00
45050;BME280;61798;48.048;-1.928;2023-04-15T02:33:27;100559.50;;;4.96;100.00
45050;BME280;61798;48.048;-1.928;2023-04-15T02:35:34;100549.44;;;4.82;100.00
45050;BME280;61798;48.048;-1.928;2023-04-15T02:37:42;100571.44;;;4.92;100.00
45050;BME280;61798;48.048;-1.928;2023-04-15T02:39:51;100557.00;;;4.95;100.00
45050;BME280;61798;48.048;-1.928;2023-04-15T02:41:58;100561.28;;;4.88;100.00
45050;BME280;61798;48.048;-1.928;2023-04-15T02:44:06;100569.09;;;4.89;100.00
45050;BME280;61798;48.048;-1.928;2023-04-15T02:46:15;100584.66;;;4.84;100.00
45050;BME280;61798;48.048;-1.928;2023-04-15T02:48:22;100575.78;;;4.75;100.00
45050;BME280;61798;48.048;-1.928;2023-04-15T02:50:29;100575.78;;;4.75;100.00
45050;BME280;61798;48.048;-1.928;2023-04-15T02:52:41;100588.50;;;4.90;100.00
45050;BME280;61798;48.048;-1.928;2023-04-15T02:54:48;100569.66;;;4.74;100.00
45050;BME280;61798;48.048;-1.928;2023-04-15T02:56:55;100594.06;;;4.78;100.00
45050;BME280;61798;48.048;-1.928;2023-04-15T02:59:04;100596.41;;;5.08;100.00
45050;BME280;61798;48.048;-1.928;2023-04-15T03:01:11;100586.16;;;4.86;100.00
45050;BME280;61798;48.048;-1.928;2023-04-15T03:03:18;100600.25;;;4.87;100.00
45050;BME280;61798;48.048;-1.928;2023-04-15T03:05:24;100594.84;;;4.70;100.00
45050;BME280;61798;48.048;-1.928;2023-04-15T03:07:31;100614.84;;;4.83;100.00
45050;BME280;61798;48.048;-1.928;2023-04-15T03:09:38;100611.09;;;4.94;100.00
45050;BME280;61798;48.048;-1.928;2023-04-15T03:11:47;100545.91;;;4.46;100.00
45050;BME280;61798;48.048;-1.928;2023-04-15T03:13:54;100601.63;;;4.91;100.00
45050;BME280;61798;48.048;-1.928;2023-04-15T03:16:01;100603.63;;;4.71;100.00
45050;BME280;61798;48.048;-1.928;2023-04-15T03:18:08;100594.84;;;4.70;100.00
45050;BME280;61798;48.048;-1.928;2023-04-15T03:20:15;100621.97;;;4.82;100.00
45050;BME280;61798;48.048;-1.928;2023-04-15T03:22:21;100611.41;;;4.64;100.00
45050;BME280;61798;48.048;-1.928;2023-04-15T03:24:28;100637.69;;;4.75;100.00
45050;BME280;61798;48.048;-1.928;2023-04-15T03:26:35;100619.84;;;4.86;100.00
45050;BME280;61798;48.048;-1.928;2023-04-15T03:28:42;100632.00;;;4.70;100.00
45050;BME280;61798;48.048;-1.928;2023-04-15T03:30:49;100618.59;;;4.72;100.00
45050;BME280;61798;48.048;-1.928;2023-04-15T03:32:55;100643.47;;;4.71;100.00
45050;BME280;61798;48.048;-1.928;2023-04-15T03:35:07;100644.41;;;4.61;100.00
45050;BME280;61798;48.048;-1.928;2023-04-15T03:37:14;100623.53;;;4.48;100.00
45050;BME280;61798;48.048;-1.928;2023-04-15T03:39:21;100650.69;;;4.42;100.00
45050;BME280;61798;48.048;-1.928;2023-04-15T03:41:28;100657.03;;;4.68;100.00
45050;BME280;61798;48.048;-1.928;2023-04-15T03:43:35;100640.84;;;4.52;100.00
45050;BME280;61798;48.048;-1.928;2023-04-15T03:45:42;100609.53;;;4.38;100.00
45050;BME280;61798;48.048;-1.928;2023-04-15T03:47:51;100646.97;;;4.53;100.00
45050;BME280;61798;48.048;-1.928;2023-04-15T03:49:59;100644.03;;;4.38;100.00
45050;BME280;61798;48.048;-1.928;2023-04-15T03:52:05;100644.25;;;4.44;100.00
45050;BME280;61798;48.048;-1.928;2023-04-15T03:54:12;100646.34;;;4.59;100.00
45050;BME280;61798;48.048;-1.928;2023-04-15T03:56:21;100666.44;;;4.62;100.00
45050;BME280;61798;48.048;-1.928;2023-04-15T03:58:28;100668.28;;;4.43;100.00
45050;BME280;61798;48.048;-1.928;2023-04-15T04:00:35;100672.69;;;4.52;100.00
45050;BME280;61798;48.048;-1.928;2023-04-15T04:02:42;100665.31;;;4.46;100.00
45050;BME280;61798;48.048;-1.928;2023-04-15T04:04:50;100684.75;;;4.65;100.00
45050;BME280;61798;48.048;-1.928;2023-04-15T04:06:57;100654.91;;;4.16;100.00
45050;BME280;61798;48.048;-1.928;2023-04-15T04:09:04;100672.75;;;4.24;100.00
45050;BME280;61798;48.048;-1.928;2023-04-15T04:11:11;100680.16;;;4.20;100.00
45050;BME280;61798;48.048;-1.928;2023-04-15T04:13:18;100683.88;;;4.46;100.00
45050;BME280;61798;48.048;-1.928;2023-04-15T04:15:26;100685.94;;;4.52;100.00
45050;BME280;61798;48.048;-1.928;2023-04-15T04:17:33;100683.88;;;4.46;100.00
45050;BME280;61798;48.048;-1.928;2023-04-15T04:19:40;100675.25;;;4.44;100.00
45050;BME280;61798;48.048;-1.928;2023-04-15T04:21:46;100692.47;;;4.40;100.00
45050;BME280;61798;48.048;-1.928;2023-04-15T04:23:53;100704.66;;;4.32;100.00
45050;BME280;61798;48.048;-1.928;2023-04-15T04:26:02;100702.09;;;4.41;100.00
45050;BME280;61798;48.048;-1.928;2023-04-15T04:28:09;100711.19;;;4.38;100.00
45050;BME280;61798;48.048;-1.928;2023-04-15T04:30:17;100705.50;;;4.33;100.00
45050;BME280;61798;48.048;-1.928;2023-04-15T04:32:25;100698.75;;;4.39;100.00
45050;BME280;61798;48.048;-1.928;2023-04-15T04:34:33;100701.72;;;4.36;100.00
45050;BME280;61798;48.048;-1.928;2023-04-15T04:36:42;100709.91;;;4.42;100.00
45050;BME280;61798;48.048;-1.928;2023-04-15T04:38:48;100697.28;;;4.26;100.00
45050;BME280;61798;48.048;-1.928;2023-04-15T04:40:55;100708.47;;;4.48;100.00
45050;BME280;61798;48.048;-1.928;2023-04-15T04:43:01;100722.72;;;4.47;100.00
45050;BME280;61798;48.048;-1.928;2023-04-15T04:45:08;100706.81;;;4.19;100.00
45050;BME280;61798;48.048;-1.928;2023-04-15T04:47:16;100742.22;;;4.56;100.00
45050;BME280;61798;48.048;-1.928;2023-04-15T04:49:23;100737.69;;;4.20;100.00
45050;BME280;61798;48.048;-1.928;2023-04-15T04:51:30;100722.38;;;4.14;100.00
45050;BME280;61798;48.048;-1.928;2023-04-15T04:53:36;100744.16;;;4.36;100.00
45050;BME280;61798;48.048;-1.928;2023-04-15T04:55:43;100755.28;;;4.21;100.00
45050;BME280;61798;48.048;-1.928;2023-04-15T04:57:50;100734.59;;;4.25;100.00
45050;BME280;61798;48.048;-1.928;2023-04-15T04:59:57;100768.88;;;4.36;100.00
45050;BME280;61798;48.048;-1.928;2023-04-15T05:02:05;100761.56;;;4.48;100.00
45050;BME280;61798;48.048;-1.928;2023-04-15T05:04:12;100754.38;;;4.30;100.00
45050;BME280;61798;48.048;-1.928;2023-04-15T05:06:20;100760.69;;;4.29;100.00
45050;BME280;61798;48.048;-1.928;2023-04-15T05:08:27;100772.81;;;4.32;100.00
45050;BME280;61798;48.048;-1.928;2023-04-15T05:10:34;100763.44;;;4.09;100.00
45050;BME280;61798;48.048;-1.928;2023-04-15T05:12:40;100757.13;;;4.10;100.00
45050;BME280;61798;48.048;-1.928;2023-04-15T05:14:47;100734.28;;;4.28;100.00
45050;BME280;61798;48.048;-1.928;2023-04-15T05:16:54;100773.84;;;4.49;100.00
45050;BME280;61798;48.048;-1.928;2023-04-15T05:19:03;100771.13;;;4.31;100.00
45050;BME280;61798;48.048;-1.928;2023-04-15T05:21:11;100794.47;;;4.27;100.00
45050;BME280;61798;48.048;-1.928;2023-04-15T05:23:16;100800.47;;;4.29;100.00
45050;BME280;61798;48.048;-1.928;2023-04-15T05:25:24;100806.34;;;4.23;100.00
45050;BME280;61798;48.048;-1.928;2023-04-15T05:27:31;100810.19;;;4.39;100.00
45050;BME280;61798;48.048;-1.928;2023-04-15T05:29:38;100803.03;;;4.21;100.00
45050;BME280;61798;48.048;-1.928;2023-04-15T05:31:45;100814.53;;;4.40;100.00
45050;BME280;61798;48.048;-1.928;2023-04-15T05:33:52;100810.94;;;4.31;100.00
45050;BME280;61798;48.048;-1.928;2023-04-15T05:36:00;100812.75;;;4.30;100.00
45050;BME280;61798;48.048;-1.928;2023-04-15T05:38:07;100813.47;;;4.22;100.00
45050;BME280;61798;48.048;-1.928;2023-04-15T05:40:14;100840.63;;;4.44;100.00
45050;BME280;61798;48.048;-1.928;2023-04-15T05:42:21;100800.72;;;4.36;100.00
45050;BME280;61798;48.048;-1.928;2023-04-15T05:44:29;100806.56;;;4.40;100.00
45050;BME280;61798;48.048;-1.928;2023-04-15T05:46:37;100839.72;;;4.54;100.00
45050;BME280;61798;48.048;-1.928;2023-04-15T05:48:45;100847.66;;;4.64;100.00
45050;BME280;61798;48.048;-1.928;2023-04-15T05:50:51;100853.41;;;4.59;100.00
45050;BME280;61798;48.048;-1.928;2023-04-15T05:52:59;100847.31;;;4.77;100.00
45050;BME280;61798;48.048;-1.928;2023-04-15T05:55:07;100846.41;;;4.58;100.00
45050;BME280;61798;48.048;-1.928;2023-04-15T05:57:15;100859.66;;;4.68;100.00
45050;BME280;61798;48.048;-1.928;2023-04-15T05:59:23;100862.59;;;4.65;100.00
45050;BME280;61798;48.048;-1.928;2023-04-15T06:01:29;100850.22;;;4.55;100.00
45050;BME280;61798;48.048;-1.928;2023-04-15T06:03:37;100838.94;;;4.43;100.00
45050;BME280;61798;48.048;-1.928;2023-04-15T06:05:46;100893.28;;;4.78;100.00
45050;BME280;61798;48.048;-1.928;2023-04-15T06:07:54;100873.75;;;4.69;100.00
45050;BME280;61798;48.048;-1.928;2023-04-15T06:10:02;100901.31;;;4.86;100.00
45050;BME280;61798;48.048;-1.928;2023-04-15T06:12:09;100908.63;;;4.84;100.00
45050;BME280;61798;48.048;-1.928;2023-04-15T06:14:18;100891.53;;;4.86;100.00
45050;BME280;61798;48.048;-1.928;2023-04-15T06:16:25;100919.88;;;4.96;100.00
45050;BME280;61798;48.048;-1.928;2023-04-15T06:18:32;100921.88;;;5.12;100.00
45050;BME280;61798;48.048;-1.928;2023-04-15T06:20:39;100922.38;;;4.97;100.00
45050;BME280;61798;48.048;-1.928;2023-04-15T06:22:47;100907.44;;;4.96;100.00
45050;BME280;61798;48.048;-1.928;2023-04-15T06:24:53;100922.75;;;5.03;100.00
45050;BME280;61798;48.048;-1.928;2023-04-15T06:27:01;100918.25;;;5.13;100.00
45050;BME280;61798;48.048;-1.928;2023-04-15T06:29:08;100915.19;;;5.08;100.00
45050;BME280;61798;48.048;-1.928;2023-04-15T06:31:15;100941.09;;;5.24;100.00
45050;BME280;61798;48.048;-1.928;2023-04-15T06:33:22;100931.91;;;5.18;100.00
45050;BME280;61798;48.048;-1.928;2023-04-15T06:35:27;100945.50;;;5.34;100.00
45050;BME280;61798;48.048;-1.928;2023-04-15T06:37:34;100937.59;;;5.24;100.00
45050;BME280;61798;48.048;-1.928;2023-04-15T06:39:42;100919.13;;;5.22;100.00
45050;BME280;61798;48.048;-1.928;2023-04-15T06:41:50;100938.84;;;5.48;100.00
45050;BME280;61798;48.048;-1.928;2023-04-15T06:43:57;100911.13;;;5.32;100.00
45050;BME280;61798;48.048;-1.928;2023-04-15T06:46:04;100946.81;;;5.66;100.00
45050;BME280;61798;48.048;-1.928;2023-04-15T06:48:10;100942.94;;;5.60;100.00
45050;BME280;61798;48.048;-1.928;2023-04-15T06:50:18;100948.25;;;5.79;100.00
45050;BME280;61798;48.048;-1.928;2023-04-15T06:52:25;100955.06;;;5.81;100.00
45050;BME280;61798;48.048;-1.928;2023-04-15T06:54:31;100959.75;;;6.06;100.00
45050;BME280;61798;48.048;-1.928;2023-04-15T06:56:38;100973.94;;;5.88;100.00
45050;BME280;61798;48.048;-1.928;2023-04-15T06:58:43;100966.22;;;6.03;100.00
45050;BME280;61798;48.048;-1.928;2023-04-15T07:00:51;100985.38;;;6.26;100.00
45050;BME280;61798;48.048;-1.928;2023-04-15T07:02:59;100983.34;;;6.19;100.00
45050;BME280;61798;48.048;-1.928;2023-04-15T07:05:16;100959.22;;;6.02;100.00
45050;BME280;61798;48.048;-1.928;2023-04-15T07:07:26;100973.69;;;6.45;100.00
45050;BME280;61798;48.048;-1.928;2023-04-15T07:09:32;100952.31;;;6.10;100.00
45050;BME280;61798;48.048;-1.928;2023-04-15T07:11:38;100965.44;;;6.30;100.00
45050;BME280;61798;48.048;-1.928;2023-04-15T07:13:44;100970.09;;;6.28;100.00
45050;BME280;61798;48.048;-1.928;2023-04-15T07:15:50;100934.72;;;6.09;100.00
45050;BME280;61798;48.048;-1.928;2023-04-15T07:17:58;100979.94;;;6.62;100.00
45050;BME280;61798;48.048;-1.928;2023-04-15T07:20:05;100974.75;;;6.52;100.00
45050;BME280;61798;48.048;-1.928;2023-04-15T07:22:11;100968.25;;;6.55;100.00
45050;BME280;61798;48.048;-1.928;2023-04-15T07:24:17;100979.53;;;6.75;100.00
45050;BME280;61798;48.048;-1.928;2023-04-15T07:26:24;100974.72;;;6.79;100.00
45050;BME280;61798;48.048;-1.928;2023-04-15T07:28:30;100998.00;;;6.77;100.00
45050;BME280;61798;48.048;-1.928;2023-04-15T07:30:36;100977.84;;;6.74;100.00
45050;BME280;61798;48.048;-1.928;2023-04-15T07:32:42;100955.53;;;6.75;100.00
45050;BME280;61798;48.048;-1.928;2023-04-15T07:34:48;100980.88;;;7.23;100.00
45050;BME280;61798;48.048;-1.928;2023-04-15T07:36:54;100988.38;;;7.28;100.00
45050;BME280;61798;48.048;-1.928;2023-04-15T07:39:00;101000.28;;;7.59;100.00
45050;BME280;61798;48.048;-1.928;2023-04-15T07:41:08;100993.06;;;7.34;100.00
45050;BME280;61798;48.048;-1.928;2023-04-15T07:43:14;100980.25;;;7.46;100.00
45050;BME280;61798;48.048;-1.928;2023-04-15T07:45:20;100933.53;;;7.08;100.00
45050;BME280;61798;48.048;-1.928;2023-04-15T07:47:26;100999.63;;;7.65;100.00
45050;BME280;61798;48.048;-1.928;2023-04-15T07:49:33;100984.25;;;7.50;100.00
45050;BME280;61798;48.048;-1.928;2023-04-15T07:51:39;100993.31;;;7.91;100.00
45050;BME280;61798;48.048;-1.928;2023-04-15T07:53:46;101009.13;;;7.85;100.00
45050;BME280;61798;48.048;-1.928;2023-04-15T07:55:53;100989.47;;;7.77;100.00
45050;BME280;61798;48.048;-1.928;2023-04-15T07:58:00;100997.97;;;7.89;100.00
45050;BME280;61798;48.048;-1.928;2023-04-15T08:00:09;100988.97;;;7.99;100.00
45050;BME280;61798;48.048;-1.928;2023-04-15T08:02:17;100986.63;;;8.12;100.00
45050;BME280;61798;48.048;-1.928;2023-04-15T08:04:24;100993.00;;;8.03;100.00
45050;BME280;61798;48.048;-1.928;2023-04-15T08:06:31;100994.66;;;7.96;100.00
45050;BME280;61798;48.048;-1.928;2023-04-15T08:08:38;101004.31;;;8.22;100.00
45050;BME280;61798;48.048;-1.928;2023-04-15T08:10:45;101010.50;;;8.14;100.00
45050;BME280;61798;48.048;-1.928;2023-04-15T08:12:53;101007.47;;;8.34;100.00
45050;BME280;61798;48.048;-1.928;2023-04-15T08:15:00;101015.16;;;8.29;100.00
45050;BME280;61798;48.048;-1.928;2023-04-15T08:17:10;101010.31;;;8.32;100.00
45050;BME280;61798;48.048;-1.928;2023-04-15T08:19:17;101002.78;;;8.36;100.00
45050;BME280;61798;48.048;-1.928;2023-04-15T08:21:25;101019.13;;;8.50;100.00
45050;BME280;61798;48.048;-1.928;2023-04-15T08:23:34;101002.13;;;8.51;100.00
45050;BME280;61798;48.048;-1.928;2023-04-15T08:25:41;101040.66;;;8.73;100.00
45050;BME280;61798;48.048;-1.928;2023-04-15T08:27:48;101029.13;;;8.73;100.00
45050;BME280;61798;48.048;-1.928;2023-04-15T08:29:55;101014.31;;;8.62;100.00
45050;BME280;61798;48.048;-1.928;2023-04-15T08:32:25;101029.59;;;8.85;100.00
45050;BME280;61798;48.048;-1.928;2023-04-15T08:34:56;101021.59;;;8.76;100.00
45050;BME280;61798;48.048;-1.928;2023-04-15T08:37:27;101045.81;;;8.92;100.00
45050;BME280;61798;48.048;-1.928;2023-04-15T08:39:33;101005.56;;;8.76;100.00
45050;BME280;61798;48.048;-1.928;2023-04-15T08:41:45;101021.47;;;9.18;100.00
45050;BME280;61798;48.048;-1.928;2023-04-15T08:44:03;101031.84;;;9.13;100.00
45050;BME280;61798;48.048;-1.928;2023-04-15T08:46:09;101019.66;;;9.11;100.00
45050;BME280;61798;48.048;-1.928;2023-04-15T08:48:17;101045.16;;;9.30;100.00
45050;BME280;61798;48.048;-1.928;2023-04-15T08:50:25;101041.97;;;9.35;100.00
45050;BME280;61798;48.048;-1.928;2023-04-15T08:52:32;101038.63;;;9.33;100.00
45050;BME280;61798;48.048;-1.928;2023-04-15T08:54:40;101053.81;;;9.32;100.00
45050;BME280;61798;48.048;-1.928;2023-04-15T08:56:46;101050.47;;;9.38;100.00
45050;BME280;61798;48.048;-1.928;2023-04-15T08:58:53;101058.47;;;9.47;100.00
45050;BME280;61798;48.048;-1.928;2023-04-15T09:01:00;101039.25;;;9.43;100.00
45050;BME280;61798;48.048;-1.928;2023-04-15T09:03:07;101048.69;;;9.22;100.00
45050;BME280;61798;48.048;-1.928;2023-04-15T09:05:14;101040.22;;;9.10;100.00
45050;BME280;61798;48.048;-1.928;2023-04-15T09:07:21;101055.81;;;9.38;100.00
45050;BME280;61798;48.048;-1.928;2023-04-15T09:09:28;101048.75;;;9.46;100.00
45050;BME280;61798;48.048;-1.928;2023-04-15T09:11:34;101055.38;;;9.58;100.00
45050;BME280;61798;48.048;-1.928;2023-04-15T09:13:40;101060.94;;;9.80;100.00
45050;BME280;61798;48.048;-1.928;2023-04-15T09:15:47;101064.38;;;9.89;100.00
45050;BME280;61798;48.048;-1.928;2023-04-15T09:17:53;101043.81;;;9.90;100.00
45050;BME280;61798;48.048;-1.928;2023-04-15T09:20:10;101054.22;;;9.84;100.00
45050;BME280;61798;48.048;-1.928;2023-04-15T09:22:19;101050.88;;;9.82;100.00
45050;BME280;61798;48.048;-1.928;2023-04-15T09:24:33;101060.66;;;9.75;100.00
45050;BME280;61798;48.048;-1.928;2023-04-15T09:26:41;101056.88;;;9.84;100.00
45050;BME280;61798;48.048;-1.928;2023-04-15T09:28:47;101064.88;;;9.93;100.00
45050;BME280;61798;48.048;-1.928;2023-04-15T09:30:58;101054.47;;;9.98;100.00
45050;BME280;61798;48.048;-1.928;2023-04-15T09:33:04;101069.84;;;10.20;100.00
45050;BME280;61798;48.048;-1.928;2023-04-15T09:35:13;101020.41;;;9.83;100.00
45050;BME280;61798;48.048;-1.928;2023-04-15T09:37:33;101042.31;;;10.11;100.00
45050;BME280;61798;48.048;-1.928;2023-04-15T09:42:11;101064.97;;;10.23;100.00
45050;BME280;61798;48.048;-1.928;2023-04-15T09:44:25;101069.75;;;10.52;100.00
45050;BME280;61798;48.048;-1.928;2023-04-15T09:46:44;101080.63;;;10.35;100.00
45050;BME280;61798;48.048;-1.928;2023-04-15T09:49:06;101098.53;;;10.58;100.00
45050;BME280;61798;48.048;-1.928;2023-04-15T09:51:14;101077.28;;;10.56;100.00
45050;BME280;61798;48.048;-1.928;2023-04-15T09:53:21;101098.19;;;10.61;100.00
45050;BME280;61798;48.048;-1.928;2023-04-15T09:55:31;101108.53;;;10.64;100.00
45050;BME280;61798;48.048;-1.928;2023-04-15T09:57:39;101107.22;;;10.60;100.00
45050;BME280;61798;48.048;-1.928;2023-04-15T09:59:50;101109.50;;;10.24;100.00
45050;BME280;61798;48.048;-1.928;2023-04-15T10:01:57;101121.16;;;10.32;100.00
45050;BME280;61798;48.048;-1.928;2023-04-15T10:04:04;101122.19;;;10.31;100.00
45050;BME280;61798;48.048;-1.928;2023-04-15T10:06:12;101104.09;;;10.72;100.00
45050;BME280;61798;48.048;-1.928;2023-04-15T10:08:21;101107.47;;;10.89;100.00
45050;BME280;61798;48.048;-1.928;2023-04-15T10:10:28;101090.66;;;11.10;100.00
45050;BME280;61798;48.048;-1.928;2023-04-15T10:12:36;101106.09;;;11.08;100.00
45050;BME280;61798;48.048;-1.928;2023-04-15T10:14:43;101079.72;;;10.97;100.00
45050;BME280;61798;48.048;-1.928;2023-04-15T10:16:49;101065.31;;;10.98;100.00
45050;BME280;61798;48.048;-1.928;2023-04-15T10:19:00;101095.34;;;11.08;100.00
45050;BME280;61798;48.048;-1.928;2023-04-15T10:21:07;101060.66;;;10.92;100.00
45050;BME280;61798;48.048;-1.928;2023-04-15T10:23:14;101123.31;;;11.14;100.00
45050;BME280;61798;48.048;-1.928;2023-04-15T10:25:22;101104.69;;;11.28;100.00
45050;BME280;61798;48.048;-1.928;2023-04-15T10:27:28;101085.84;;;11.06;100.00
45050;BME280;61798;48.048;-1.928;2023-04-15T10:29:36;101094.59;;;11.15;100.00
45050;BME280;61798;48.048;-1.928;2023-04-15T10:31:42;101105.16;;;11.01;100.00
45050;BME280;61798;48.048;-1.928;2023-04-15T10:33:51;101083.88;;;10.99;100.00
45050;BME280;61798;48.048;-1.928;2023-04-15T10:35:57;101077.59;;;11.07;100.00
45050;BME280;61798;48.048;-1.928;2023-04-15T10:38:31;101112.38;;;11.00;100.00
45050;BME280;61798;48.048;-1.928;2023-04-15T10:40:37;101123.84;;;11.40;100.00
45050;BME280;61798;48.048;-1.928;2023-04-15T10:42:43;101120.78;;;11.58;100.00
45050;BME280;61798;48.048;-1.928;2023-04-15T10:44:55;101123.72;;;11.63;100.00
45050;BME280;61798;48.048;-1.928;2023-04-15T10:47:06;101111.84;;;11.73;100.00
45050;BME280;61798;48.048;-1.928;2023-04-15T10:49:23;101127.47;;;11.84;100.00
45050;BME280;61798;48.048;-1.928;2023-04-15T10:51:30;101124.22;;;11.89;100.00
45050;BME280;61798;48.048;-1.928;2023-04-15T10:53:36;101087.31;;;11.76;100.00
45050;BME280;61798;48.048;-1.928;2023-04-15T10:55:46;101133.84;;;11.83;100.00
45050;BME280;61798;48.048;-1.928;2023-04-15T10:57:54;101146.19;;;11.62;100.00
45050;BME280;61798;48.048;-1.928;2023-04-15T11:02:17;101127.31;;;11.56;100.00
45050;BME280;61798;48.048;-1.928;2023-04-15T11:04:55;101142.69;;;11.62;100.00